Time;durP1;ratioP1;P1;durP2;ratioP2;P2;SDS_P1;SDS_P2;PMS_P1;PMS_P2;Temp;Humidity;BMP_temperature;BMP_pressure;BME280_temperature;BME280_humidity;BME280_pressure;Samples;Min_cycle;Max_cycle;Signal;HPM_P1;HPM_P2
2023/04/06 00:01:10;;;;;;;15.43;6.80;;;0.40;99.90;;;;;;6243792;23;20155;-82
2023/04/06 00:03:36;;;;;;;10.90;7.25;;;0.30;99.90;;;;;;6220281;23;20235;-82
2023/04/06 00:06:02;;;;;;;14.07;8.57;;;0.40;99.90;;;;;;6248399;23;20172;-81
2023/04/06 00:08:28;;;;;;;12.43;7.83;;;0.40;99.90;;;;;;6220424;23;20740;-82
2023/04/06 00:10:54;;;;;;;11.18;7.45;;;0.30;99.90;;;;;;6226566;23;20147;-83
2023/04/06 00:13:19;;;;;;;12.53;7.87;;;0.30;99.90;;;;;;6253572;23;20583;-83
2023/04/06 00:15:46;;;;;;;19.93;9.43;;;0.20;99.90;;;;;;6253286;23;20185;-78
2023/04/06 00:18:11;;;;;;;15.75;8.68;;;0.20;99.90;;;;;;6252893;22;20442;-81
2023/04/06 00:20:37;;;;;;;13.30;9.17;;;0.10;99.90;;;;;;6246723;23;20148;-79
2023/04/06 00:23:03;;;;;;;16.23;10.47;;;0.10;99.90;;;;;;6220235;23;20247;-82
2023/04/06 00:25:28;;;;;;;17.03;9.20;;;0.10;99.90;;;;;;6250964;23;20368;-81
2023/04/06 00:27:54;;;;;;;13.43;8.43;;;0.00;99.90;;;;;;6222982;23;20181;-83
2023/04/06 00:30:20;;;;;;;13.50;8.57;;;0.10;99.90;;;;;;6222707;23;20539;-79
2023/04/06 00:32:45;;;;;;;13.80;8.60;;;0.00;99.90;;;;;;6221387;23;20208;-82
2023/04/06 00:35:11;;;;;;;9.90;7.83;;;0.00;99.90;;;;;;6249661;23;20875;-81
2023/04/06 00:37:36;;;;;;;10.77;8.60;;;-0.20;99.90;;;;;;6247650;22;20160;-81
2023/04/06 00:40:02;;;;;;;10.57;7.63;;;-0.30;99.90;;;;;;6247788;23;20153;-84
2023/04/06 00:42:28;;;;;;;13.37;7.83;;;-0.50;99.90;;;;;;6246962;23;20153;-79
2023/04/06 00:44:56;;;;;;;13.80;8.50;;;-0.60;99.90;;;;;;6220974;23;20386;-81
2023/04/06 00:47:24;;;;;;;12.63;8.63;;;-0.60;99.90;;;;;;6220994;23;20492;-83
2023/04/06 00:49:52;;;;;;;14.27;8.90;;;-0.50;99.90;;;;;;6221397;23;20187;-83
2023/04/06 00:52:19;;;;;;;13.13;8.50;;;-0.50;99.90;;;;;;6249044;23;20123;-84
2023/04/06 00:54:44;;;;;;;11.45;8.25;;;-0.60;99.90;;;;;;6248630;23;20171;-80
2023/04/06 00:57:13;;;;;;;14.47;8.70;;;-0.50;99.90;;;;;;6227142;22;20638;-82
2023/04/06 00:59:40;;;;;;;11.00;7.90;;;-0.50;99.90;;;;;;6253072;22;20575;-81
2023/04/06 01:02:06;;;;;;;12.95;8.02;;;-0.40;99.90;;;;;;6278446;22;20203;-82
2023/04/06 01:04:32;;;;;;;13.43;7.50;;;-0.50;99.90;;;;;;6250116;22;20147;-81
2023/04/06 01:06:57;;;;;;;17.98;11.00;;;-0.50;99.90;;;;;;6251770;22;20749;-81
2023/04/06 01:09:23;;;;;;;13.83;8.87;;;-0.50;99.90;;;;;;6276285;22;20203;-76
2023/04/06 01:11:48;;;;;;;21.87;11.30;;;-0.60;99.90;;;;;;6278396;22;20816;-82
2023/04/06 01:14:14;;;;;;;20.37;11.43;;;-0.60;99.90;;;;;;6278507;22;20160;-82
2023/04/06 01:16:41;;;;;;;14.37;9.63;;;-0.60;99.90;;;;;;6250633;22;20164;-82
2023/04/06 01:19:11;;;;;;;23.42;9.90;;;-0.60;99.90;;;;;;6277423;22;20197;-79
2023/04/06 01:21:38;;;;;;;15.82;9.90;;;-0.60;99.90;;;;;;6278275;22;20240;-82
2023/04/06 01:24:04;;;;;;;14.18;9.57;;;-0.40;99.90;;;;;;6279137;22;20152;-83
2023/04/06 01:26:30;;;;;;;10.40;7.20;;;-0.30;99.90;;;;;;6278103;22;20201;-83
2023/04/06 01:28:56;;;;;;;22.43;8.63;;;-0.40;99.90;;;;;;6277160;22;20175;-82
2023/04/06 01:31:22;;;;;;;12.90;9.15;;;-0.40;99.90;;;;;;6247083;22;20375;-80
2023/04/06 01:33:47;;;;;;;12.77;8.90;;;-0.40;99.90;;;;;;6249814;22;20171;-83
2023/04/06 01:36:13;;;;;;;13.70;8.03;;;-0.40;99.90;;;;;;6278384;22;20354;-80
2023/04/06 01:38:39;;;;;;;15.83;9.87;;;-0.30;99.90;;;;;;6249948;22;20406;-82
2023/04/06 01:41:05;;;;;;;14.10;8.03;;;-0.20;99.90;;;;;;6276385;22;20234;-79
2023/04/06 01:43:30;;;;;;;13.40;8.53;;;-0.20;99.90;;;;;;6278587;22;20176;-83
2023/04/06 01:45:56;;;;;;;19.67;10.47;;;-0.10;99.90;;;;;;6250426;22;20140;-82
2023/04/06 01:48:21;;;;;;;13.97;9.00;;;0.00;99.90;;;;;;6277598;22;20174;-80
2023/04/06 01:50:47;;;;;;;11.03;7.67;;;0.00;99.90;;;;;;6249743;22;20159;-81
2023/04/06 01:53:12;;;;;;;15.03;8.30;;;0.10;99.90;;;;;;6281435;22;20148;-82
2023/04/06 01:55:38;;;;;;;16.17;9.07;;;0.10;99.90;;;;;;6252038;22;20152;-78
2023/04/06 01:58:03;;;;;;;16.10;9.33;;;0.20;99.90;;;;;;6261318;22;20184;-84
2023/04/06 02:00:29;;;;;;;14.07;8.90;;;0.30;99.90;;;;;;6250247;23;20679;-81
2023/04/06 02:02:55;;;;;;;14.07;9.10;;;0.40;99.90;;;;;;6222272;23;20653;-83
2023/04/06 02:05:20;;;;;;;17.77;10.87;;;0.40;99.90;;;;;;6222282;23;20156;-80
2023/04/06 02:07:46;;;;;;;16.47;9.23;;;0.50;99.90;;;;;;6249739;22;20252;-80
2023/04/06 02:10:13;;;;;;;13.70;7.63;;;0.70;99.90;;;;;;6248506;23;20164;-81
2023/04/06 02:12:39;;;;;;;13.32;8.80;;;0.50;99.90;;;;;;6222674;23;20588;-81
2023/04/06 02:15:05;;;;;;;17.97;11.10;;;0.30;99.90;;;;;;6251284;23;20148;-81
2023/04/06 02:17:30;;;;;;;15.38;9.77;;;0.20;99.90;;;;;;6221344;23;20198;-81
2023/04/06 02:19:56;;;;;;;15.33;10.30;;;0.20;99.90;;;;;;6249464;23;20153;-80
2023/04/06 02:22:21;;;;;;;17.90;11.97;;;0.30;99.90;;;;;;6246801;23;20140;-78
2023/04/06 02:24:47;;;;;;;18.73;10.30;;;0.50;99.90;;;;;;6250943;23;20135;-80
2023/04/06 02:27:14;;;;;;;16.53;10.50;;;0.30;99.90;;;;;;6225248;23;20176;-83
2023/04/06 02:29:40;;;;;;;18.20;9.60;;;0.20;99.90;;;;;;6223430;23;20180;-81
2023/04/06 02:32:06;;;;;;;16.10;9.93;;;0.20;99.90;;;;;;6222572;23;20152;-82
2023/04/06 02:34:31;;;;;;;16.17;8.83;;;0.20;99.90;;;;;;6222571;23;20153;-82
2023/04/06 02:36:57;;;;;;;20.07;10.63;;;0.20;99.90;;;;;;6248461;22;20392;-78
2023/04/06 02:39:22;;;;;;;20.67;8.80;;;0.20;99.90;;;;;;6247600;23;20160;-82
2023/04/06 02:41:48;;;;;;;15.43;9.17;;;0.20;99.90;;;;;;6221403;23;20152;-82
2023/04/06 02:44:14;;;;;;;15.10;8.73;;;0.20;99.90;;;;;;6251389;23;20148;-80
2023/04/06 02:46:39;;;;;;;16.63;10.50;;;0.20;99.90;;;;;;6252162;22;20149;-81
2023/04/06 02:49:05;;;;;;;12.40;8.40;;;0.20;99.90;;;;;;6225821;23;20179;-83
2023/04/06 02:51:31;;;;;;;14.27;9.43;;;0.20;99.90;;;;;;6226864;23;20585;-82
2023/04/06 02:53:56;;;;;;;15.43;9.50;;;0.20;99.90;;;;;;6254737;23;20145;-83
2023/04/06 02:56:22;;;;;;;12.13;9.13;;;0.20;99.90;;;;;;6253519;23;20145;-79
2023/04/06 02:58:47;;;;;;;15.10;9.00;;;0.30;99.90;;;;;;6251859;22;20187;-81
2023/04/06 03:01:13;;;;;;;12.90;9.40;;;0.20;99.90;;;;;;6254681;22;20496;-81
2023/04/06 03:03:39;;;;;;;18.17;10.90;;;0.10;99.90;;;;;;6282207;22;20148;-82
2023/04/06 03:06:04;;;;;;;18.70;10.67;;;0.10;99.90;;;;;;6256212;22;20197;-82
2023/04/06 03:08:30;;;;;;;14.00;9.10;;;0.10;99.90;;;;;;6283964;22;20269;-80
2023/04/06 03:10:56;;;;;;;17.30;10.03;;;0.00;99.90;;;;;;6258446;22;20156;-81
2023/04/06 03:13:21;;;;;;;14.30;9.50;;;0.10;99.90;;;;;;6259134;22;20238;-83
2023/04/06 03:15:47;;;;;;;16.77;10.63;;;0.10;99.90;;;;;;6254894;22;20148;-81
2023/04/06 03:18:12;;;;;;;18.27;11.10;;;0.10;99.90;;;;;;6283484;22;20187;-84
2023/04/06 03:20:38;;;;;;;14.70;9.57;;;0.10;99.90;;;;;;6281985;22;20152;-83
2023/04/06 03:23:04;;;;;;;12.70;9.60;;;0.10;99.90;;;;;;6257553;22;20475;-81
2023/04/06 03:25:32;;;;;;;13.23;9.00;;;0.10;99.90;;;;;;6284363;22;20545;-80
2023/04/06 03:27:57;;;;;;;17.33;11.35;;;0.00;99.90;;;;;;6283653;22;20160;-81
2023/04/06 03:30:23;;;;;;;16.67;10.37;;;0.00;99.90;;;;;;6285476;22;20148;-80
2023/04/06 03:32:49;;;;;;;22.80;11.97;;;0.00;99.90;;;;;;6257822;22;20152;-81
2023/04/06 03:35:14;;;;;;;20.10;11.27;;;-0.10;99.90;;;;;;6285349;22;20121;-82
2023/04/06 03:37:40;;;;;;;24.97;16.17;;;-0.10;99.90;;;;;;6283576;22;20219;-79
2023/04/06 03:40:06;;;;;;;18.47;11.47;;;-0.10;99.90;;;;;;6283520;22;20148;-83
2023/04/06 03:42:32;;;;;;;20.73;11.93;;;-0.10;99.90;;;;;;6254555;22;20162;-81
2023/04/06 03:44:58;;;;;;;16.38;11.35;;;-0.10;99.90;;;;;;6254633;22;20382;-81
2023/04/06 03:47:24;;;;;;;19.35;12.02;;;-0.10;99.90;;;;;;6255385;22;20183;-82
2023/04/06 03:49:49;;;;;;;15.60;10.07;;;-0.10;99.90;;;;;;6280871;22;20162;-81
2023/04/06 03:52:15;;;;;;;14.90;10.10;;;-0.10;99.90;;;;;;6282627;22;20142;-83
2023/04/06 03:54:40;;;;;;;19.40;10.27;;;-0.20;99.90;;;;;;6281743;22;20144;-81
2023/04/06 03:57:06;;;;;;;16.20;10.97;;;-0.10;99.90;;;;;;6275822;22;20251;-78
2023/04/06 03:59:33;;;;;;;17.70;10.47;;;-0.10;99.90;;;;;;6248111;23;20168;-82
2023/04/06 04:01:58;;;;;;;18.23;12.48;;;-0.20;99.90;;;;;;6222316;23;20145;-82
2023/04/06 04:04:24;;;;;;;17.33;11.33;;;-0.20;99.90;;;;;;6250931;23;20152;-81
2023/04/06 04:06:49;;;;;;;23.10;11.27;;;-0.30;99.90;;;;;;6251697;22;20203;-82
2023/04/06 04:09:15;;;;;;;21.93;11.73;;;-0.30;99.90;;;;;;6253389;23;20176;-79
2023/04/06 04:11:41;;;;;;;20.73;9.93;;;-0.10;99.90;;;;;;6226057;23;20136;-82
2023/04/06 04:14:06;;;;;;;19.07;10.10;;;-0.20;99.90;;;;;;6227253;23;20152;-82
2023/04/06 04:16:32;;;;;;;16.47;11.47;;;-0.50;99.90;;;;;;6249611;23;20143;-82
2023/04/06 04:19:00;;;;;;;19.33;10.83;;;-0.60;99.90;;;;;;6252007;22;20224;-81
2023/04/06 04:21:26;;;;;;;14.43;10.65;;;-0.70;99.90;;;;;;6251481;23;20144;-81
2023/04/06 04:23:52;;;;;;;18.83;12.27;;;-0.80;99.90;;;;;;6252050;23;20143;-81
2023/04/06 04:26:18;;;;;;;16.52;11.35;;;-0.80;99.90;;;;;;6225557;23;20372;-81
2023/04/06 04:28:44;;;;;;;17.73;12.40;;;-0.90;99.90;;;;;;6222078;23;20259;-78
2023/04/06 04:31:10;;;;;;;17.27;11.40;;;-0.90;99.90;;;;;;6222729;23;20398;-82
2023/04/06 04:33:35;;;;;;;15.67;10.13;;;-0.80;99.90;;;;;;6224714;23;20621;-80
2023/04/06 04:36:01;;;;;;;18.37;12.07;;;-0.90;99.90;;;;;;6226839;23;20371;-81
2023/04/06 04:38:26;;;;;;;24.57;13.17;;;-1.00;99.90;;;;;;6225143;23;20172;-78
2023/04/06 04:40:52;;;;;;;20.30;11.93;;;-1.10;99.90;;;;;;6226892;23;20179;-78
2023/04/06 04:43:17;;;;;;;13.87;8.67;;;-1.10;99.90;;;;;;6254791;23;20149;-82
2023/04/06 04:45:43;;;;;;;16.43;10.60;;;-1.10;99.90;;;;;;6229293;23;20136;-81
2023/04/06 04:48:09;;;;;;;15.63;10.20;;;-1.10;99.90;;;;;;6226869;23;20222;-83
2023/04/06 04:50:34;;;;;;;19.87;11.27;;;-1.20;99.90;;;;;;6227429;23;20631;-83
2023/04/06 04:53:00;;;;;;;16.67;11.63;;;-1.10;99.90;;;;;;6255379;23;20468;-82
2023/04/06 04:55:25;;;;;;;21.10;11.70;;;-1.10;99.90;;;;;;6255424;23;20160;-81
2023/04/06 04:57:51;;;;;;;21.80;11.27;;;-1.00;99.90;;;;;;6235822;23;20208;-81
2023/04/06 05:00:17;;;;;;;18.20;12.00;;;;;;;;;;6224791;22;20201;-83
2023/04/06 05:02:43;;;;;;;22.80;13.07;;;-1.00;99.90;;;;;;6224278;23;20201;-82
2023/04/06 05:05:08;;;;;;;25.23;11.67;;;-0.90;99.90;;;;;;6226097;23;20203;-83
2023/04/06 05:07:34;;;;;;;18.10;10.70;;;-0.80;99.90;;;;;;6223315;23;20149;-82
2023/04/06 05:10:00;;;;;;;12.93;9.33;;;-0.60;99.90;;;;;;6247766;23;20789;-82
2023/04/06 05:12:27;;;;;;;22.33;12.30;;;-0.60;99.90;;;;;;6251132;23;20398;-82
2023/04/06 05:14:53;;;;;;;22.10;12.07;;;-0.40;99.90;;;;;;6275884;22;20153;-83
2023/04/06 05:17:19;;;;;;;19.25;11.38;;;0.30;99.90;;;;;;6254022;22;20155;-82
2023/04/06 05:19:45;;;;;;;20.47;11.53;;;1.40;99.90;;;;;;6254689;23;20168;-83
2023/04/06 05:22:10;;;;;;;14.88;10.57;;;2.90;99.90;;;;;;6278691;22;20697;-83
2023/04/06 05:24:36;;;;;;;14.40;10.27;;;4.20;99.90;;;;;;6253507;23;20251;-83
2023/04/06 05:27:02;;;;;;;15.60;10.00;;;5.40;99.90;;;;;;6253577;23;20149;-82
2023/04/06 05:29:28;;;;;;;21.60;12.67;;;6.30;99.90;;;;;;6255315;23;20184;-83
2023/04/06 05:31:54;;;;;;;18.65;10.85;;;6.80;99.90;;;;;;6284447;22;20244;-83
2023/04/06 05:34:20;;;;;;;18.00;9.47;;;7.80;99.90;;;;;;6282019;22;20152;-83
2023/04/06 05:36:45;;;;;;;25.60;16.60;;;9.00;99.90;;;;;;6255559;22;20136;-83
2023/04/06 05:39:12;;;;;;;18.90;11.93;;;9.90;99.90;;;;;;6255062;23;20172;-83
2023/04/06 05:41:37;;;;;;;23.15;11.30;;;10.70;99.90;;;;;;6278858;22;20161;-84
2023/04/06 05:44:03;;;;;;;14.17;11.70;;;11.40;97.10;;;;;;6255779;23;20239;-83
2023/04/06 05:46:29;;;;;;;17.83;10.97;;;12.00;92.50;;;;;;6256418;23;20153;-83
2023/04/06 05:48:54;;;;;;;13.03;10.20;;;12.10;89.60;;;;;;6278276;22;20755;-83
2023/04/06 05:51:20;;;;;;;16.97;11.43;;;12.80;90.40;;;;;;6278341;22;20150;-83
2023/04/06 05:53:46;;;;;;;15.10;9.97;;;14.00;89.40;;;;;;6276932;22;20352;-84
2023/04/06 05:56:11;;;;;;;22.33;10.95;;;15.30;80.00;;;;;;6277632;22;20159;-84
2023/04/06 05:58:37;;;;;;;14.77;10.73;;;16.00;74.10;;;;;;6280820;22;20218;-83
2023/04/06 06:01:03;;;;;;;18.67;10.60;;;16.80;70.70;;;;;;6285167;22;20144;-83
2023/04/06 06:03:29;;;;;;;16.27;11.23;;;17.70;65.00;;;;;;6284490;22;20189;-83
2023/04/06 06:06:00;;;;;;;17.10;11.43;;;18.10;59.20;;;;;;6285448;22;20375;-83
2023/04/06 06:08:25;;;;;;;14.30;12.17;;;18.10;54.80;;;;;;6284801;22;20430;-83
2023/04/06 06:10:51;;;;;;;17.03;11.33;;;18.40;53.50;;;;;;6283377;22;20695;-83
2023/04/06 06:13:17;;;;;;;13.57;10.20;;;18.40;52.60;;;;;;6283594;22;20148;-84
2023/04/06 06:15:42;;;;;;;15.73;11.80;;;17.00;51.00;;;;;;6282926;22;20264;-84
2023/04/06 06:18:08;;;;;;;17.17;11.20;;;;;;;;;;6281257;22;20144;-83
2023/04/06 06:20:33;;;;;;;18.77;12.70;;;17.00;51.80;;;;;;6283754;22;20213;-84
2023/04/06 06:22:59;;;;;;;16.27;11.43;;;17.30;51.40;;;;;;6284777;22;20395;-83
2023/04/06 06:25:25;;;;;;;14.67;12.10;;;17.50;50.30;;;;;;6283634;22;20195;-84
2023/04/06 06:27:50;;;;;;;14.23;11.30;;;17.60;50.40;;;;;;6285366;22;20159;-84
2023/04/06 06:30:16;;;;;;;16.53;12.60;;;18.50;50.30;;;;;;6285219;22;20195;-85
2023/04/06 06:32:41;;;;;;;14.87;11.50;;;19.00;50.10;;;;;;6257030;22;20246;-84
2023/04/06 06:35:07;;;;;;;17.03;11.80;;;18.00;47.20;;;;;;6282661;22;20183;-84
2023/04/06 06:37:33;;;;;;;15.70;11.93;;;18.40;48.80;;;;;;6285481;22;20609;-84
2023/04/06 06:39:58;;;;;;;17.13;12.40;;;18.50;48.20;;;;;;6283548;22;20402;-83
2023/04/06 06:42:24;;;;;;;13.60;11.63;;;19.50;48.50;;;;;;6285260;22;20136;-83
2023/04/06 06:44:51;;;;;;;14.50;11.57;;;20.30;46.90;;;;;;6283282;22;20152;-85
2023/04/06 06:47:16;;;;;;;13.60;12.00;;;20.40;45.70;;;;;;6283041;22;20144;-85
2023/04/06 06:49:42;;;;;;;17.60;12.03;;;19.60;45.90;;;;;;6284471;22;20449;-83
2023/04/06 06:52:07;;;;;;;17.80;12.23;;;19.10;45.00;;;;;;6282161;22;20148;-85
2023/04/06 06:54:33;;;;;;;15.20;12.77;;;19.40;46.70;;;;;;6280729;22;20162;-85
2023/04/06 06:57:00;;;;;;;15.93;12.23;;;19.70;45.80;;;;;;6282061;22;20147;-84
2023/04/06 06:59:25;;;;;;;15.97;12.70;;;20.00;44.60;;;;;;6279019;22;20214;-84
2023/04/06 07:01:51;;;;;;;17.93;12.50;;;19.90;45.10;;;;;;6282388;22;20390;-84
2023/04/06 07:04:16;;;;;;;18.70;12.97;;;20.70;45.50;;;;;;6282454;22;20160;-85
2023/04/06 07:06:42;;;;;;;21.10;12.60;;;20.30;43.10;;;;;;6282056;22;20373;-85
2023/04/06 07:09:07;;;;;;;18.50;13.47;;;20.20;44.70;;;;;;6281043;22;20271;-83
2023/04/06 07:11:33;;;;;;;20.93;12.90;;;21.30;44.00;;;;;;6286184;22;20501;-85
2023/04/06 07:13:59;;;;;;;18.67;12.97;;;;;;;;;;6285507;22;20154;-84
2023/04/06 07:16:24;;;;;;;14.73;12.00;;;20.30;42.40;;;;;;6284946;22;20144;-85
2023/04/06 07:18:50;;;;;;;17.90;13.90;;;20.80;44.30;;;;;;6283619;22;20466;-85
2023/04/06 07:21:16;;;;;;;17.37;12.93;;;21.40;43.70;;;;;;6285162;22;20152;-84
2023/04/06 07:23:42;;;;;;;15.83;12.87;;;21.00;42.50;;;;;;6285154;22;20420;-84
2023/04/06 07:26:07;;;;;;;17.73;13.37;;;22.20;43.20;;;;;;6259718;22;20225;-84
2023/04/06 07:28:33;;;;;;;17.63;12.97;;;21.60;40.80;;;;;;6285402;22;20188;-85
2023/04/06 07:30:58;;;;;;;17.23;12.77;;;21.80;40.60;;;;;;6283962;22;20152;-83
2023/04/06 07:33:24;;;;;;;15.53;13.10;;;22.70;41.40;;;;;;6281975;22;20508;-83
2023/04/06 07:35:51;;;;;;;16.70;12.80;;;23.90;41.90;;;;;;6281882;22;20483;-84
2023/04/06 07:38:16;;;;;;;14.93;12.03;;;24.00;38.60;;;;;;6280184;22;20351;-83
2023/04/06 07:40:42;;;;;;;19.10;12.60;;;23.90;38.90;;;;;;6283197;22;20715;-84
2023/04/06 07:43:07;;;;;;;15.40;13.80;;;24.10;39.70;;;;;;6282325;22;20166;-85
2023/04/06 07:45:33;;;;;;;18.70;12.63;;;23.60;39.70;;;;;;6284563;22;20158;-84
2023/04/06 07:47:58;;;;;;;14.60;13.10;;;23.70;39.90;;;;;;6284775;22;20207;-84
2023/04/06 07:50:24;;;;;;;13.37;11.97;;;23.60;39.80;;;;;;6284086;22;20251;-84
2023/04/06 07:52:50;;;;;;;19.43;12.67;;;22.80;39.40;;;;;;6278988;22;20179;-83
2023/04/06 07:55:15;;;;;;;17.90;13.17;;;22.60;40.80;;;;;;6278403;22;20163;-83
2023/04/06 07:57:41;;;;;;;16.97;13.70;;;20.60;42.10;;;;;;6269889;22;20669;-86
2023/04/06 08:00:09;;;;;;;16.73;12.10;;;21.10;42.40;;;;;;6278352;22;20520;-82
2023/04/06 08:02:34;;;;;;;18.27;13.30;;;22.90;42.10;;;;;;6280576;22;20179;-82
2023/04/06 08:05:00;;;;;;;21.03;13.37;;;23.60;40.10;;;;;;6282008;22;20374;-82
2023/04/06 08:07:25;;;;;;;17.90;12.20;;;23.70;40.50;;;;;;6280949;22;20189;-87
2023/04/06 08:09:52;;;;;;;15.97;13.20;;;25.40;40.00;;;;;;6282484;22;20191;-84
2023/04/06 08:12:17;;;;;;;14.77;12.30;;;24.30;38.30;;;;;;6280188;22;20166;-84
2023/04/06 08:14:43;;;;;;;14.50;11.70;;;23.70;38.90;;;;;;6280361;22;20382;-83
2023/04/06 08:17:08;;;;;;;17.07;13.33;;;25.30;40.00;;;;;;6281953;22;20144;-84
2023/04/06 08:19:34;;;;;;;16.73;12.80;;;25.70;39.00;;;;;;6281851;22;20179;-83
2023/04/06 08:21:59;;;;;;;19.10;13.23;;;26.40;38.30;;;;;;6282150;22;20198;-83
2023/04/06 08:24:25;;;;;;;14.60;12.67;;;25.20;38.50;;;;;;6282569;22;20243;-83
2023/04/06 08:26:51;;;;;;;17.67;13.63;;;24.00;39.30;;;;;;6280690;22;20164;-85
2023/04/06 08:29:16;;;;;;;16.10;13.47;;;24.10;40.60;;;;;;6281009;22;20314;-85
2023/04/06 08:31:42;;;;;;;15.23;12.90;;;23.30;38.50;;;;;;6282323;22;20147;-84
2023/04/06 08:34:08;;;;;;;14.57;12.33;;;23.10;41.10;;;;;;6281444;22;20740;-82
2023/04/06 08:36:33;;;;;;;17.57;11.97;;;24.40;39.60;;;;;;6283754;22;20148;-83
2023/04/06 08:39:00;;;;;;;15.47;11.93;;;24.80;38.90;;;;;;6279973;22;20184;-83
2023/04/06 08:41:27;;;;;;;16.17;11.80;;;24.70;37.60;;;;;;6283401;22;20158;-83
2023/04/06 08:43:59;;;;;;;17.63;11.07;;;24.00;36.80;;;;;;6281944;22;20432;-82
2023/04/06 08:46:29;;;;;;;12.13;10.80;;;23.10;37.20;;;;;;6279350;22;20389;-85
2023/04/06 08:48:56;;;;;;;15.07;10.27;;;22.20;39.40;;;;;;6278057;22;20450;-85
2023/04/06 08:51:23;;;;;;;12.80;11.37;;;22.10;38.60;;;;;;6280051;22;20382;-83
2023/04/06 08:53:50;;;;;;;15.80;10.60;;;21.70;37.30;;;;;;6255749;22;20382;-83
2023/04/06 08:56:15;;;;;;;15.90;11.50;;;23.20;38.70;;;;;;6280782;22;20378;-81
2023/04/06 08:58:41;;;;;;;15.37;9.50;;;22.40;36.10;;;;;;6281322;22;20408;-82
2023/04/06 09:01:11;;;;;;;12.83;11.10;;;22.40;38.70;;;;;;6278891;22;20801;-85
2023/04/06 09:03:41;;;;;;;15.60;11.50;;;23.10;36.90;;;;;;6282124;22;20370;-85
2023/04/06 09:06:08;;;;;;;16.60;10.30;;;24.00;35.80;;;;;;6283314;22;20371;-85
2023/04/06 09:08:40;;;;;;;13.30;10.30;;;23.60;35.30;;;;;;6280339;22;20429;-85
2023/04/06 09:11:05;;;;;;;15.43;10.77;;;22.90;35.90;;;;;;6280134;22;20436;-85
2023/04/06 09:13:31;;;;;;;12.10;9.80;;;23.20;36.00;;;;;;6278928;22;20375;-86
2023/04/06 09:16:05;;;;;;;11.70;10.03;;;23.50;35.30;;;;;;6279703;22;20446;-84
2023/04/06 09:18:32;;;;;;;17.70;10.20;;;23.10;36.50;;;;;;6277847;22;20178;-83
2023/04/06 09:21:04;;;;;;;11.90;9.90;;;22.70;35.20;;;;;;6278400;22;20370;-83
2023/04/06 09:23:29;;;;;;;17.97;10.80;;;22.00;36.10;;;;;;6275669;22;20370;-83
2023/04/06 09:26:13;;;;;;;14.00;9.73;;;22.30;37.20;;;;;;6274421;22;20406;-83
2023/04/06 09:28:49;;;;;;;16.90;9.70;;;22.50;36.60;;;;;;6273589;22;20185;-84
2023/04/06 09:31:16;;;;;;;15.43;9.13;;;22.60;36.80;;;;;;6276756;22;20362;-84
2023/04/06 09:33:44;;;;;;;13.33;10.60;;;21.80;36.30;;;;;;6272935;22;20498;-82
2023/04/06 09:36:10;;;;;;;11.13;8.70;;;21.50;36.80;;;;;;6275585;22;20402;-83
2023/04/06 09:38:58;;;;;;;14.07;9.60;;;20.90;35.90;;;;;;6275931;22;20391;-82
2023/04/06 09:41:26;;;;;;;17.20;9.70;;;20.30;36.50;;;;;;6276171;22;20370;-82
2023/04/06 09:44:00;;;;;;;13.80;9.23;;;20.00;36.00;;;;;;6277023;22;20735;-83
2023/04/06 09:46:26;;;;;;;10.80;8.40;;;20.00;36.10;;;;;;6274461;22;20832;-83
2023/04/06 09:48:53;;;;;;;13.17;9.63;;;19.80;37.30;;;;;;6249068;22;20521;-83
2023/04/06 09:51:19;;;;;;;14.00;10.40;;;21.00;37.80;;;;;;6277179;22;20215;-83
2023/04/06 09:53:50;;;;;;;9.43;8.37;;;21.00;37.80;;;;;;6274858;22;20393;-83
2023/04/06 09:56:20;;;;;;;11.50;9.30;;;21.20;37.20;;;;;;6273545;22;20363;-83
2023/04/06 09:58:47;;;;;;;13.30;10.13;;;21.30;35.90;;;;;;6243035;23;20419;-84
2023/04/06 10:01:17;;;;;;;13.40;8.70;;;21.50;36.20;;;;;;6245988;23;20486;-84
2023/04/06 10:04:07;;;;;;;9.93;7.67;;;21.50;37.10;;;;;;6241595;23;20379;-83
2023/04/06 10:06:35;;;;;;;10.90;7.70;;;20.30;35.00;;;;;;6268892;22;20383;-82
2023/04/06 10:09:03;;;;;;;10.43;8.60;;;20.20;37.20;;;;;;6242795;23;20427;-83
2023/04/06 10:11:30;;;;;;;13.33;8.67;;;21.70;35.20;;;;;;6243878;23;20518;-84
2023/04/06 10:13:56;;;;;;;13.60;7.90;;;22.20;37.90;;;;;;6241993;23;20390;-85
2023/04/06 10:16:24;;;;;;;9.87;7.20;;;21.10;36.50;;;;;;6243871;23;20374;-84
2023/04/06 10:18:55;;;;;;;11.30;6.70;;;19.80;32.10;;;;;;6244611;22;20402;-83
2023/04/06 10:21:25;;;;;;;11.00;6.90;;;18.40;32.90;;;;;;6243664;22;20886;-84
2023/04/06 10:23:55;;;;;;;10.80;7.57;;;16.20;34.70;;;;;;6241255;23;20392;-83
2023/04/06 10:26:21;;;;;;;13.47;7.10;;;15.00;38.40;;;;;;6242866;22;20375;-81
2023/04/06 10:28:49;;;;;;;15.50;8.50;;;14.20;39.90;;;;;;6246286;22;20558;-81
2023/04/06 10:31:15;;;;;;;16.67;8.43;;;14.20;39.40;;;;;;6246103;22;20380;-80
2023/04/06 10:33:41;;;;;;;14.40;8.37;;;13.90;39.50;;;;;;6245647;22;20371;-80
2023/04/06 10:36:10;;;;;;;11.00;8.03;;;13.80;39.80;;;;;;6247926;23;20383;-81
2023/04/06 10:38:38;;;;;;;12.73;7.03;;;13.70;41.00;;;;;;6248200;23;20394;-81
2023/04/06 10:41:05;;;;;;;14.48;8.95;;;13.80;42.20;;;;;;6271727;22;20390;-81
2023/04/06 10:43:37;;;;;;;10.93;7.40;;;14.10;40.10;;;;;;6248365;23;20187;-82
2023/04/06 10:46:04;;;;;;;8.98;6.80;;;14.00;42.50;;;;;;6251287;22;20133;-82
2023/04/06 10:48:40;;;;;;;19.83;9.40;;;13.90;42.70;;;;;;6250071;23;20185;-80
2023/04/06 10:51:14;;;;;;;9.60;7.05;;;13.60;40.80;;;;;;6275078;22;20153;-84
2023/04/06 10:53:49;;;;;;;12.60;9.00;;;13.20;42.40;;;;;;6245250;22;20139;-84
2023/04/06 10:56:17;;;;;;;13.80;8.55;;;13.30;41.20;;;;;;6251465;23;20132;-83
2023/04/06 10:58:52;;;;;;;14.20;7.85;;;13.50;41.90;;;;;;6249622;23;20207;-83
2023/04/06 11:01:19;;;;;;;15.65;8.77;;;13.80;39.20;;;;;;6247968;23;20179;-80
2023/04/06 11:03:57;;;;;;;11.47;6.63;;;14.00;39.20;;;;;;6249161;23;20192;-83
2023/04/06 11:06:26;;;;;;;10.32;6.43;;;14.10;37.60;;;;;;6249289;22;20486;-82
2023/04/06 11:08:53;;;;;;;12.90;8.43;;;13.10;42.00;;;;;;6249387;22;20259;-83
2023/04/06 11:11:21;;;;;;;14.55;7.38;;;13.20;42.60;;;;;;6247528;23;20204;-83
2023/04/06 11:13:55;;;;;;;11.70;8.53;;;13.60;40.40;;;;;;6248356;22;20152;-84
2023/04/06 11:16:23;;;;;;;11.50;7.97;;;13.90;39.20;;;;;;6246623;22;20971;-83
2023/04/06 11:18:56;;;;;;;10.57;7.75;;;13.80;39.30;;;;;;6248820;22;20187;-83
2023/04/06 11:21:47;;;;;;;12.80;6.95;;;13.60;40.60;;;;;;6251524;22;20143;-84
2023/04/06 11:24:16;;;;;;;11.67;8.83;;;13.60;41.10;;;;;;6249460;22;20129;-82
2023/04/06 11:26:48;;;;;;;15.17;8.50;;;14.10;43.30;;;;;;6250479;22;20853;-83
2023/04/06 11:29:16;;;;;;;14.40;7.47;;;14.30;39.60;;;;;;6249240;22;20447;-81
2023/04/06 11:31:50;;;;;;;11.03;8.10;;;14.50;38.40;;;;;;6249249;23;20384;-83
2023/04/06 11:34:21;;;;;;;18.90;8.33;;;14.50;40.10;;;;;;6245702;22;20394;-81
2023/04/06 11:36:48;;;;;;;12.00;8.87;;;14.50;40.60;;;;;;6249884;22;20375;-81
2023/04/06 11:39:20;;;;;;;10.80;8.30;;;14.70;39.40;;;;;;6247253;23;20525;-83
2023/04/06 11:41:49;;;;;;;15.40;9.20;;;14.90;41.20;;;;;;6247305;23;20379;-82
2023/04/06 11:44:15;;;;;;;12.63;8.40;;;15.40;39.10;;;;;;6249250;22;20366;-83
2023/04/06 11:46:40;;;;;;;11.37;7.60;;;15.30;41.20;;;;;;6248145;23;20462;-83
2023/04/06 11:49:06;;;;;;;12.67;8.30;;;14.80;41.50;;;;;;6249828;23;20250;-81
2023/04/06 11:51:35;;;;;;;10.27;7.37;;;14.30;41.80;;;;;;6247443;23;20199;-84
2023/04/06 11:54:01;;;;;;;13.23;8.50;;;14.30;42.30;;;;;;6248309;23;20152;-85
2023/04/06 11:56:30;;;;;;;11.50;7.93;;;14.30;42.40;;;;;;6274184;22;20384;-83
2023/04/06 11:58:57;;;;;;;12.87;9.10;;;14.40;39.90;;;;;;6248586;23;20196;-83
2023/04/06 12:04:45;;;;;;;11.43;8.73;;;14.40;39.30;;;;;;6242239;23;20339;-80
2023/04/06 12:07:11;;;;;;;13.67;9.70;;;14.30;40.40;;;;;;6272023;22;20376;-82
2023/04/06 12:09:36;;;;;;;14.00;9.20;;;14.40;41.00;;;;;;6248694;23;20220;-84
2023/04/06 12:12:02;;;;;;;13.27;7.97;;;14.50;40.90;;;;;;6271291;22;20174;-83
2023/04/06 12:14:30;;;;;;;13.97;9.10;;;14.50;41.90;;;;;;6247208;22;20140;-82
2023/04/06 12:16:57;;;;;;;12.37;8.77;;;14.30;40.00;;;;;;6272377;22;21186;-82
2023/04/06 12:19:25;;;;;;;15.30;8.67;;;14.50;41.80;;;;;;6246214;23;20407;-84
2023/04/06 12:21:51;;;;;;;12.70;9.13;;;14.70;42.20;;;;;;6246488;23;20860;-83
2023/04/06 12:24:17;;;;;;;12.37;8.13;;;14.60;41.00;;;;;;6246732;23;20391;-83
2023/04/06 12:26:43;;;;;;;16.07;9.03;;;14.70;41.30;;;;;;6248911;23;20911;-83
2023/04/06 12:29:08;;;;;;;12.70;8.70;;;15.00;40.10;;;;;;6249070;23;20182;-83
2023/04/06 12:31:38;;;;;;;16.20;9.13;;;15.20;41.50;;;;;;6247367;23;20244;-82
2023/04/06 12:34:04;;;;;;;10.50;7.97;;;15.20;40.40;;;;;;6244536;23;20152;-83
2023/04/06 12:36:31;;;;;;;17.33;9.60;;;15.30;41.90;;;;;;6273052;22;20386;-82